Time;durP1;ratioP1;P1;durP2;ratioP2;P2;SDS_P1;SDS_P2;PMS_P1;PMS_P2;Temp;Humidity;BMP_temperature;BMP_pressure;BME280_temperature;BME280_humidity;BME280_pressure;Samples;Min_cycle;Max_cycle;Signal;HPM_P1;HPM_P2
2021/09/17 00:01:04;;;;;;;21.55;12.98;;;;;;;17.60;100.00;96376.03;4986059;28;20082;-61
2021/09/17 00:03:33;;;;;;;21.60;13.63;;;;;;;17.27;100.00;96378.38;4984596;28;20618;-59
2021/09/17 00:06:01;;;;;;;20.05;12.90;;;;;;;17.61;100.00;96366.19;4989398;28;20586;-60
2021/09/17 00:08:30;;;;;;;20.80;13.45;;;;;;;17.11;100.00;96371.44;4987251;28;20069;-53
2021/09/17 00:10:59;;;;;;;19.23;12.43;;;;;;;17.31;100.00;96369.81;4982883;28;20799;-58
2021/09/17 00:13:27;;;;;;;18.65;12.68;;;;;;;17.01;100.00;96365.59;4977532;28;20089;-59
2021/09/17 00:15:56;;;;;;;21.70;13.55;;;;;;;16.92;100.00;96370.19;4988927;28;20084;-59
2021/09/17 00:18:26;;;;;;;21.60;13.23;;;;;;;16.90;100.00;96372.22;4981752;28;20069;-60
2021/09/17 00:20:54;;;;;;;22.63;13.18;;;;;;;16.83;100.00;96376.63;4984828;28;20532;-60
2021/09/17 00:23:22;;;;;;;21.50;12.88;;;;;;;16.72;100.00;96366.41;4983512;28;20092;-60
2021/09/17 00:25:51;;;;;;;24.40;14.27;;;;;;;16.81;100.00;96378.66;4985148;28;20077;-61
2021/09/17 00:28:20;;;;;;;25.08;13.57;;;;;;;16.96;100.00;96367.97;4988311;28;20090;-60
2021/09/17 00:30:48;;;;;;;21.27;13.15;;;;;;;16.24;100.00;96374.78;4986116;28;20077;-60
2021/09/17 00:33:17;;;;;;;23.50;13.73;;;;;;;16.47;100.00;96387.16;4987013;28;20065;-60
2021/09/17 00:35:46;;;;;;;22.73;13.98;;;;;;;16.43;100.00;96383.22;4985429;28;20637;-61
2021/09/17 00:38:15;;;;;;;24.00;14.02;;;;;;;16.63;100.00;96376.34;4984953;28;20096;-59
2021/09/17 00:40:43;;;;;;;23.65;14.13;;;;;;;16.37;100.00;96376.78;4982576;28;20086;-60
2021/09/17 00:43:12;;;;;;;20.45;13.25;;;;;;;16.51;100.00;96372.47;4987390;28;20093;-60
2021/09/17 00:45:41;;;;;;;20.08;13.35;;;;;;;16.53;100.00;96378.47;4978132;28;20074;-60
2021/09/17 00:48:09;;;;;;;22.58;14.48;;;;;;;16.63;100.00;96373.69;4982399;28;20457;-60
2021/09/17 00:50:38;;;;;;;23.55;13.90;;;;;;;16.24;100.00;96369.47;4985510;28;20066;-60
2021/09/17 00:53:08;;;;;;;21.42;13.65;;;;;;;16.25;100.00;96373.75;4985616;28;20080;-61
2021/09/17 00:55:36;;;;;;;21.95;13.43;;;;;;;16.26;100.00;96363.94;4980625;28;20078;-60
2021/09/17 00:58:05;;;;;;;21.65;14.02;;;;;;;16.33;100.00;96357.69;4987482;28;20078;-57
2021/09/17 01:00:33;;;;;;;24.70;13.40;;;;;;;16.36;100.00;96360.00;4983474;28;20516;-57
2021/09/17 01:03:02;;;;;;;22.63;14.23;;;;;;;16.02;100.00;96363.16;4981771;28;20058;-60
2021/09/17 01:05:30;;;;;;;25.15;14.35;;;;;;;16.15;100.00;96362.56;4985862;28;20572;-60
2021/09/17 01:07:59;;;;;;;24.58;14.65;;;;;;;16.37;100.00;96353.66;4985814;28;20070;-59
2021/09/17 01:10:29;;;;;;;25.73;13.80;;;;;;;16.02;100.00;96359.69;4983551;28;20069;-60
2021/09/17 01:12:58;;;;;;;22.45;13.77;;;;;;;16.34;100.00;96356.72;4982460;28;20077;-58
2021/09/17 01:15:27;;;;;;;24.15;13.40;;;;;;;16.68;100.00;96352.63;4985819;28;20516;-61
2021/09/17 01:17:55;;;;;;;25.85;13.68;;;;;;;16.49;100.00;96354.03;4982831;28;20081;-61
2021/09/17 01:20:24;;;;;;;24.48;14.18;;;;;;;16.97;100.00;96349.16;4982853;28;20066;-60
2021/09/17 01:22:54;;;;;;;28.48;14.85;;;;;;;16.48;100.00;96355.06;4982357;28;20070;-59
2021/09/17 01:25:23;;;;;;;22.35;14.10;;;;;;;16.82;100.00;96351.00;4980987;28;20085;-59
2021/09/17 01:27:53;;;;;;;27.15;14.65;;;;;;;16.90;100.00;96350.09;4980928;28;20359;-60
2021/09/17 01:30:23;;;;;;;25.88;15.23;;;;;;;17.09;100.00;96339.63;4984987;28;20073;-60
2021/09/17 01:32:51;;;;;;;22.85;14.32;;;;;;;17.18;100.00;96335.03;4986073;28;20042;-60
2021/09/17 01:35:22;;;;;;;23.85;14.63;;;;;;;17.19;100.00;96342.00;4984240;28;20438;-60
2021/09/17 01:37:51;;;;;;;;;;;;;;;17.17;100.00;96341.38;4983113;28;20496;-61
2021/09/17 01:40:21;;;;;;;21.85;14.00;;;;;;;16.91;100.00;96339.22;4987850;28;19926;-59
2021/09/17 01:42:49;;;;;;;22.33;13.75;;;;;;;16.80;100.00;96343.22;4989049;28;20082;-56
2021/09/17 01:45:18;;;;;;;21.77;14.35;;;;;;;16.99;100.00;96328.47;4992728;28;20099;-60
2021/09/17 01:47:46;;;;;;;23.33;14.60;;;;;;;16.84;100.00;96333.81;4987151;28;20509;-59
2021/09/17 01:50:15;;;;;;;27.73;15.27;;;;;;;17.14;100.00;96325.75;4986187;28;20073;-59
2021/09/17 01:52:43;;;;;;;23.35;15.02;;;;;;;17.35;100.00;96321.47;4988289;28;20078;-60
2021/09/17 01:55:12;;;;;;;24.20;14.65;;;;;;;17.25;100.00;96325.25;4993110;28;20096;-61
2021/09/17 01:57:43;;;;;;;22.00;14.18;;;;;;;17.47;100.00;96325.25;4984604;28;20070;-59
2021/09/17 02:00:12;;;;;;;22.25;14.32;;;;;;;17.69;100.00;96323.41;4987756;28;20086;-61
2021/09/17 02:02:41;;;;;;;25.17;15.90;;;;;;;17.39;100.00;96318.22;4988895;28;20446;-58
2021/09/17 02:05:11;;;;;;;25.40;15.35;;;;;;;17.56;100.00;96321.44;4986790;28;20062;-59
2021/09/17 02:07:39;;;;;;;25.38;14.73;;;;;;;17.60;100.00;96325.38;4988367;28;20140;-58
2021/09/17 02:10:09;;;;;;;24.65;14.35;;;;;;;17.46;100.00;96327.09;4989000;28;20085;-60
2021/09/17 02:12:38;;;;;;;24.95;15.57;;;;;;;17.17;100.00;96321.88;4983380;28;20535;-59
2021/09/17 02:15:10;;;;;;;20.95;13.82;;;;;;;17.68;100.00;96321.75;4989574;28;20069;-58
2021/09/17 02:17:39;;;;;;;24.23;14.90;;;;;;;17.99;100.00;96327.56;4985733;28;20066;-53
2021/09/17 02:20:08;;;;;;;23.40;14.68;;;;;;;18.05;100.00;96325.97;4989967;28;20058;-60
2021/09/17 02:22:37;;;;;;;24.42;14.43;;;;;;;17.63;100.00;96333.00;4984938;28;20081;-59
2021/09/17 02:25:07;;;;;;;21.73;14.40;;;;;;;17.82;100.00;96330.72;4997073;28;20081;-60
2021/09/17 02:27:36;;;;;;;22.80;14.80;;;;;;;17.51;100.00;96326.50;4988677;28;20101;-59
2021/09/17 02:30:09;;;;;;;23.98;14.18;;;;;;;17.37;100.00;96328.22;4988921;28;20073;-61
2021/09/17 02:32:38;;;;;;;20.63;14.00;;;;;;;17.60;100.00;96329.91;4982095;28;20066;-59
2021/09/17 02:35:08;;;;;;;21.95;13.93;;;;;;;17.55;100.00;96327.81;4990939;28;20062;-60
2021/09/17 02:37:36;;;;;;;22.83;15.00;;;;;;;17.22;100.00;96330.16;4988122;28;20089;-61
2021/09/17 02:40:06;;;;;;;22.05;13.65;;;;;;;16.79;100.00;96330.91;4989322;28;20078;-60
2021/09/17 02:42:34;;;;;;;25.30;14.57;;;;;;;17.46;100.00;96332.44;4988219;28;20086;-56
2021/09/17 02:45:05;;;;;;;25.40;14.18;;;;;;;17.35;100.00;96340.13;4982873;28;20077;-60
2021/09/17 02:47:35;;;;;;;25.98;14.60;;;;;;;17.67;100.00;96328.94;4986462;28;20081;-60
2021/09/17 02:50:04;;;;;;;26.90;15.10;;;;;;;17.62;100.00;96334.03;4988016;28;20777;-61
2021/09/17 02:52:32;;;;;;;22.20;13.60;;;;;;;17.81;100.00;96329.06;4985987;28;20089;-56
2021/09/17 02:55:02;;;;;;;22.83;13.77;;;;;;;17.62;100.00;96325.19;4990361;28;20086;-59
2021/09/17 02:57:30;;;;;;;23.50;13.57;;;;;;;17.60;100.00;96327.22;4987354;28;20074;-61
2021/09/17 02:59:59;;;;;;;21.90;14.43;;;;;;;18.32;100.00;96332.31;4983965;28;20336;-58
2021/09/17 03:02:27;;;;;;;18.17;12.55;;;;;;;17.92;100.00;96337.38;4989322;28;20073;-58
2021/09/17 03:04:57;;;;;;;19.08;13.02;;;;;;;17.47;100.00;96330.59;4988468;28;20078;-59
2021/09/17 03:07:26;;;;;;;19.92;13.50;;;;;;;17.76;100.00;96329.66;4986308;28;20089;-57
2021/09/17 03:09:55;;;;;;;21.38;13.32;;;;;;;17.86;100.00;96334.63;4990196;28;20456;-59
2021/09/17 03:12:23;;;;;;;19.63;13.77;;;;;;;17.41;100.00;96334.88;4989958;28;20088;-60
2021/09/17 03:14:52;;;;;;;18.98;12.93;;;;;;;17.46;100.00;96336.94;4987032;28;20627;-61
2021/09/17 03:17:20;;;;;;;22.98;14.15;;;;;;;17.31;100.00;96335.16;4986283;28;20061;-60
2021/09/17 03:19:49;;;;;;;20.90;12.27;;;;;;;17.37;100.00;96332.75;4990296;28;20074;-52
2021/09/17 03:22:18;;;;;;;19.52;12.85;;;;;;;17.30;100.00;96328.16;4991130;28;20085;-61
2021/09/17 03:24:47;;;;;;;20.13;12.30;;;;;;;17.25;100.00;96333.25;4990429;28;20568;-60
2021/09/17 03:27:15;;;;;;;18.33;12.65;;;;;;;17.12;100.00;96338.44;4985629;28;20058;-57
2021/09/17 03:29:44;;;;;;;21.73;12.13;;;;;;;17.48;100.00;96338.41;4989622;28;20053;-57
2021/09/17 03:32:12;;;;;;;18.15;11.43;;;;;;;17.39;100.00;96328.06;4987328;28;20062;-60
2021/09/17 03:34:41;;;;;;;16.92;11.98;;;;;;;17.74;100.00;96331.66;4982297;28;20441;-60
2021/09/17 03:37:09;;;;;;;22.90;12.95;;;;;;;17.87;100.00;96329.13;4993265;28;20101;-58
2021/09/17 03:39:39;;;;;;;20.40;13.18;;;;;;;17.23;100.00;96327.28;4986131;28;20077;-61
2021/09/17 03:42:08;;;;;;;19.17;13.00;;;;;;;17.72;100.00;96323.84;4985415;28;20594;-61
2021/09/17 03:44:37;;;;;;;20.33;12.63;;;;;;;17.41;100.00;96323.34;4987148;28;20062;-59
2021/09/17 03:47:05;;;;;;;19.80;12.48;;;;;;;17.83;100.00;96330.53;4986027;28;20072;-60
2021/09/17 03:49:34;;;;;;;19.77;12.70;;;;;;;17.98;100.00;96317.91;4984523;28;20078;-60
2021/09/17 03:52:02;;;;;;;21.17;12.45;;;;;;;17.70;100.00;96319.72;4987215;28;20140;-58
2021/09/17 03:54:31;;;;;;;21.00;12.50;;;;;;;17.69;100.00;96321.56;4986028;28;20547;-61
2021/09/17 03:57:00;;;;;;;23.58;13.10;;;;;;;18.07;100.00;96315.94;4984636;28;20532;-60
2021/09/17 03:59:29;;;;;;;21.60;13.82;;;;;;;17.67;100.00;96320.94;4984866;28;20066;-61
2021/09/17 04:02:00;;;;;;;19.45;12.43;;;;;;;17.52;100.00;96323.69;4984623;28;20471;-61
2021/09/17 04:04:29;;;;;;;19.98;12.43;;;;;;;17.87;100.00;96325.63;4987025;28;20524;-60
2021/09/17 04:06:58;;;;;;;19.95;13.30;;;;;;;17.71;100.00;96316.84;4986545;28;20078;-58
2021/09/17 04:09:26;;;;;;;17.90;12.13;;;;;;;17.61;100.00;96318.19;4992332;28;20065;-61
2021/09/17 04:11:55;;;;;;;21.30;13.43;;;;;;;17.68;100.00;96317.22;4983707;28;20085;-60
2021/09/17 04:14:26;;;;;;;18.98;12.77;;;;;;;17.95;100.00;96317.47;4985305;28;20555;-59
2021/09/17 04:16:54;;;;;;;19.75;13.00;;;;;;;17.42;100.00;96315.19;4982214;28;20066;-60
2021/09/17 04:19:23;;;;;;;20.08;12.45;;;;;;;18.03;100.00;96310.16;4988957;28;20088;-60
2021/09/17 04:21:52;;;;;;;17.13;12.50;;;;;;;18.24;100.00;96311.13;5015752;28;20382;-60
2021/09/17 04:24:20;;;;;;;19.77;12.18;;;;;;;18.08;100.00;96314.09;4984304;28;20070;-59
2021/09/17 04:26:48;;;;;;;21.55;13.25;;;;;;;17.96;100.00;96309.28;4985588;28;20078;-60
2021/09/17 04:29:17;;;;;;;19.90;12.98;;;;;;;18.31;100.00;96306.63;4986654;28;20540;-59
2021/09/17 04:31:47;;;;;;;21.60;12.70;;;;;;;17.98;100.00;96325.09;4981882;28;20098;-58
2021/09/17 04:34:15;;;;;;;22.67;13.55;;;;;;;18.49;100.00;96319.47;4988888;28;20093;-58
2021/09/17 04:36:43;;;;;;;20.35;13.18;;;;;;;18.76;100.00;96319.63;4985132;28;20062;-59
2021/09/17 04:39:12;;;;;;;19.95;12.55;;;;;;;18.62;100.00;96322.22;4984855;28;20563;-59
2021/09/17 04:41:40;;;;;;;19.80;12.90;;;;;;;18.52;100.00;96327.09;4984460;28;20070;-60
2021/09/17 04:44:09;;;;;;;20.30;13.23;;;;;;;17.89;100.00;96335.06;4986354;28;20496;-57
2021/09/17 04:46:37;;;;;;;19.05;13.02;;;;;;;17.60;100.00;96324.56;4985679;28;20570;-61
2021/09/17 04:49:07;;;;;;;20.13;13.18;;;;;;;18.34;100.00;96327.59;4984068;28;20089;-60
2021/09/17 04:51:35;;;;;;;23.23;14.00;;;;;;;18.41;100.00;96324.94;4986268;28;20077;-60
2021/09/17 04:54:04;;;;;;;18.13;13.07;;;;;;;18.10;100.00;96336.91;4986115;28;20066;-61
2021/09/17 04:56:33;;;;;;;20.02;13.18;;;;;;;18.26;100.00;96327.75;4987526;28;20077;-59
2021/09/17 04:59:01;;;;;;;26.10;13.30;;;;;;;18.22;100.00;96329.97;4984592;28;20066;-57
2021/09/17 05:01:29;;;;;;;20.25;13.48;;;;;;;18.12;100.00;96321.50;4986197;28;20077;-60
2021/09/17 05:03:58;;;;;;;18.92;13.32;;;;;;;18.37;100.00;96326.38;4984671;28;20096;-59
2021/09/17 05:06:30;;;;;;;18.30;12.30;;;;;;;17.93;100.00;96331.03;4982136;28;20069;-57
2021/09/17 05:08:59;;;;;;;21.08;12.95;;;;;;;18.09;100.00;96329.88;4983118;28;20078;-57
2021/09/17 05:11:28;;;;;;;25.30;14.48;;;;;;;18.25;100.00;96332.25;4985153;28;20468;-61
2021/09/17 05:13:56;;;;;;;21.05;13.20;;;;;;;18.35;100.00;96334.59;4982880;28;20069;-59
2021/09/17 05:16:24;;;;;;;20.80;13.52;;;;;;;17.82;100.00;96338.72;4982344;28;20082;-61
2021/09/17 05:18:53;;;;;;;20.60;13.80;;;;;;;18.23;100.00;96331.63;4989975;28;20524;-60
2021/09/17 05:21:21;;;;;;;22.60;14.60;;;;;;;18.03;100.00;96344.84;4987518;28;20465;-59
2021/09/17 05:23:51;;;;;;;23.48;15.90;;;;;;;18.36;100.00;96343.41;4989675;28;20455;-60
2021/09/17 05:26:20;;;;;;;25.10;14.77;;;;;;;18.02;100.00;96343.19;4982382;28;20066;-58
2021/09/17 05:28:48;;;;;;;20.70;14.07;;;;;;;17.95;100.00;96344.16;4983857;28;20070;-60
2021/09/17 05:31:17;;;;;;;20.08;13.55;;;;;;;18.05;100.00;96347.31;4983682;28;20078;-59
2021/09/17 05:33:45;;;;;;;21.70;13.70;;;;;;;18.19;100.00;96348.22;4984787;28;20594;-59
2021/09/17 05:36:13;;;;;;;23.42;14.27;;;;;;;17.81;100.00;96350.41;4985056;28;20096;-59
2021/09/17 05:38:42;;;;;;;21.42;12.30;;;;;;;18.26;100.00;96339.25;4984223;28;20078;-59
2021/09/17 05:41:13;;;;;;;23.48;14.25;;;;;;;18.20;100.00;96352.53;4982179;28;20073;-60
2021/09/17 05:43:42;;;;;;;25.90;14.32;;;;;;;18.10;100.00;96347.56;4985803;28;20089;-61
2021/09/17 05:46:10;;;;;;;20.23;13.18;;;;;;;17.94;100.00;96355.84;4986623;28;20086;-59
2021/09/17 05:48:39;;;;;;;20.33;14.18;;;;;;;18.07;100.00;96352.47;4985671;28;20070;-61
2021/09/17 05:51:07;;;;;;;20.85;13.80;;;;;;;18.43;100.00;96355.78;4979818;28;20070;-60
2021/09/17 05:53:55;;;;;;;20.80;13.00;;;;;;;18.25;100.00;96356.28;4984722;28;20070;-58
2021/09/17 05:56:26;;;;;;;23.10;14.35;;;;;;;17.56;100.00;96359.59;4984778;28;20536;-59
2021/09/17 05:58:54;;;;;;;;;;;;;;;18.04;100.00;96364.34;4982889;28;20069;-59
2021/09/17 06:01:22;;;;;;;20.65;13.40;;;;;;;17.98;100.00;96362.44;4976277;28;19961;-59
2021/09/17 06:03:51;;;;;;;18.98;13.00;;;;;;;18.31;100.00;96364.56;4984662;28;20326;-61
2021/09/17 06:06:20;;;;;;;19.02;13.35;;;;;;;18.35;100.00;96361.28;4980024;28;20489;-59
2021/09/17 06:08:49;;;;;;;19.70;12.68;;;;;;;18.14;100.00;96364.84;4986002;28;20078;-60
2021/09/17 06:11:17;;;;;;;21.63;13.45;;;;;;;18.61;100.00;96362.44;4979963;28;20074;-60
2021/09/17 06:13:47;;;;;;;19.70;13.25;;;;;;;18.61;100.00;96368.63;4981785;28;20481;-57
2021/09/17 06:16:16;;;;;;;20.92;13.60;;;;;;;18.41;100.00;96360.50;4983758;28;20078;-60
2021/09/17 06:18:48;;;;;;;19.75;13.90;;;;;;;18.20;100.00;96360.56;4986014;28;20077;-61
2021/09/17 06:21:16;;;;;;;20.98;14.43;;;;;;;18.37;100.00;96355.75;4985143;28;20128;-60
2021/09/17 06:23:45;;;;;;;20.90;13.57;;;;;;;18.12;100.00;96358.88;4984053;28;20073;-56
2021/09/17 06:26:13;;;;;;;18.30;13.40;;;;;;;18.34;100.00;96356.13;4984338;28;20550;-61
2021/09/17 06:28:42;;;;;;;17.45;13.27;;;;;;;19.00;100.00;96351.16;4983141;28;20082;-60
2021/09/17 06:31:12;;;;;;;19.20;13.27;;;;;;;18.16;100.00;96360.13;4989283;28;20078;-60
2021/09/17 06:33:40;;;;;;;20.65;12.85;;;;;;;19.23;100.00;96358.00;4979251;28;20081;-57
2021/09/17 06:36:09;;;;;;;18.83;12.68;;;;;;;18.72;100.00;96354.75;4989625;28;20074;-61
2021/09/17 06:38:37;;;;;;;20.05;13.75;;;;;;;19.52;100.00;96357.69;4989241;28;20108;-61
2021/09/17 06:41:06;;;;;;;18.27;13.13;;;;;;;19.37;100.00;96352.53;4985796;28;20147;-55
2021/09/17 06:43:34;;;;;;;21.83;14.02;;;;;;;19.22;100.00;96351.84;4980777;28;20085;-62
2021/09/17 06:46:03;;;;;;;19.65;13.02;;;;;;;19.72;100.00;96351.53;4990295;28;20081;-58
2021/09/17 06:48:33;;;;;;;17.80;13.00;;;;;;;19.95;100.00;96361.84;4986706;28;20069;-60
2021/09/17 06:51:01;;;;;;;20.67;13.77;;;;;;;19.01;100.00;96360.81;4987084;28;20070;-55
2021/09/17 06:53:30;;;;;;;18.83;13.10;;;;;;;19.96;100.00;96356.31;4986007;28;20092;-61
2021/09/17 06:55:58;;;;;;;22.48;14.55;;;;;;;19.98;100.00;96361.44;4988589;28;20089;-61
2021/09/17 06:58:31;;;;;;;20.95;14.05;;;;;;;19.38;100.00;96362.19;4986370;28;20532;-61
2021/09/17 07:01:00;;;;;;;18.48;12.90;;;;;;;19.82;100.00;96363.53;4988843;28;20478;-59
2021/09/17 07:03:29;;;;;;;19.02;13.57;;;;;;;20.15;100.00;96363.50;4987235;28;20070;-62
2021/09/17 07:05:59;;;;;;;18.05;13.23;;;;;;;19.64;100.00;96365.94;4988044;28;20074;-61
2021/09/17 07:08:27;;;;;;;20.88;14.70;;;;;;;18.83;100.00;96361.38;4987884;28;20069;-60
2021/09/17 07:10:56;;;;;;;17.92;12.55;;;;;;;18.72;100.00;96372.63;4983965;28;20070;-62
2021/09/17 07:13:24;;;;;;;19.00;13.57;;;;;;;19.95;100.00;96362.69;4988318;28;20484;-59
2021/09/17 07:15:53;;;;;;;18.77;13.98;;;;;;;19.68;100.00;96362.69;4982472;28;21536;-60
2021/09/17 07:18:21;;;;;;;20.50;13.57;;;;;;;19.90;100.00;96360.63;4984698;28;20070;-61
2021/09/17 07:20:50;;;;;;;16.50;12.73;;;;;;;19.48;100.00;96359.13;4987795;28;20078;-56
2021/09/17 07:23:20;;;;;;;18.73;13.70;;;;;;;19.90;100.00;96365.97;4981674;28;20080;-61
2021/09/17 07:25:48;;;;;;;19.83;13.73;;;;;;;19.31;100.00;96368.53;4986528;28;20471;-59
2021/09/17 07:28:17;;;;;;;16.95;13.48;;;;;;;19.51;100.00;96366.75;4990131;28;20700;-60
2021/09/17 07:30:46;;;;;;;20.80;13.63;;;;;;;19.85;100.00;96368.44;4985678;28;20480;-61
2021/09/17 07:33:14;;;;;;;17.35;12.02;;;;;;;19.61;100.00;96366.31;4984850;28;20085;-60
2021/09/17 07:35:43;;;;;;;20.77;13.38;;;;;;;20.09;100.00;96367.00;4984520;28;20066;-61
2021/09/17 07:38:11;;;;;;;20.40;13.35;;;;;;;20.09;100.00;96366.19;4987340;28;20663;-61
2021/09/17 07:40:41;;;;;;;18.45;14.25;;;;;;;19.64;100.00;96369.44;4987456;28;20085;-61
2021/09/17 07:43:10;;;;;;;20.42;14.05;;;;;;;19.82;100.00;96362.66;4984658;28;20086;-61
2021/09/17 07:45:38;;;;;;;19.00;13.05;;;;;;;20.18;100.00;96374.84;4986534;28;20069;-60
2021/09/17 07:48:07;;;;;;;18.42;13.05;;;;;;;20.60;100.00;96352.94;4988392;28;20097;-60
2021/09/17 07:50:39;;;;;;;21.00;13.35;;;;;;;20.61;100.00;96357.28;4985115;28;20070;-62
2021/09/17 07:53:07;;;;;;;17.83;13.55;;;;;;;20.24;100.00;96364.13;4983538;28;20072;-54
2021/09/17 07:55:36;;;;;;;18.45;14.25;;;;;;;20.17;100.00;96362.50;4976687;28;20082;-59
2021/09/17 07:58:06;;;;;;;20.02;13.93;;;;;;;20.62;100.00;96358.09;4988891;28;20093;-61
2021/09/17 08:00:34;;;;;;;16.20;13.77;;;;;;;19.66;100.00;96364.72;4985955;28;20065;-59
2021/09/17 08:03:04;;;;;;;18.88;13.80;;;;;;;20.36;100.00;96366.97;4981745;28;20533;-61
2021/09/17 08:05:33;;;;;;;18.60;14.18;;;;;;;20.79;100.00;96353.94;4983190;28;20070;-61
2021/09/17 08:08:02;;;;;;;18.88;14.10;;;;;;;19.73;100.00;96366.59;4987538;28;20062;-59
2021/09/17 08:10:30;;;;;;;20.42;13.10;;;;;;;;;;4984654;28;20516;-60
2021/09/17 08:12:58;;;;;;;18.02;13.40;;;;;;;20.67;100.00;96354.78;4993744;28;20082;-60
2021/09/17 08:15:28;;;;;;;18.15;12.82;;;;;;;20.85;100.00;96357.59;4982580;28;20473;-61
2021/09/17 08:17:57;;;;;;;18.23;13.35;;;;;;;20.43;100.00;96366.97;4986341;28;20073;-61
2021/09/17 08:20:25;;;;;;;16.77;12.02;;;;;;;21.09;100.00;96361.44;4986185;28;20074;-61
2021/09/17 08:22:54;;;;;;;15.90;12.45;;;;;;;21.89;100.00;96366.38;4978276;28;20441;-53
2021/09/17 08:25:22;;;;;;;16.00;12.43;;;;;;;22.05;100.00;96369.31;4985104;28;20078;-59
2021/09/17 08:27:51;;;;;;;16.58;12.82;;;;;;;22.15;100.00;96366.19;4983011;28;20365;-60
2021/09/17 08:30:19;;;;;;;16.25;12.00;;;;;;;22.52;100.00;96369.75;4986616;28;20460;-62
2021/09/17 08:32:50;;;;;;;16.20;13.07;;;;;;;21.93;100.00;96370.25;4984873;28;20078;-59
2021/09/17 08:35:19;;;;;;;14.75;12.18;;;;;;;21.91;100.00;96372.34;4984947;28;20069;-61
2021/09/17 08:37:47;;;;;;;17.65;12.50;;;;;;;20.91;100.00;96372.03;4976218;28;20470;-57
2021/09/17 08:40:17;;;;;;;15.52;12.43;;;;;;;21.02;100.00;96376.72;4988285;28;20533;-61
2021/09/17 08:42:45;;;;;;;15.93;12.55;;;;;;;20.69;100.00;96375.00;4984401;28;20062;-61
2021/09/17 08:45:14;;;;;;;14.27;12.27;;;;;;;21.71;100.00;96370.63;4985089;28;20066;-61
2021/09/17 08:47:47;;;;;;;16.83;13.07;;;;;;;21.78;100.00;96376.78;4982940;28;20076;-60
2021/09/17 08:50:17;;;;;;;13.85;12.15;;;;;;;21.99;100.00;96370.22;4985582;28;20081;-62
2021/09/17 08:52:45;;;;;;;15.77;12.73;;;;;;;21.18;100.00;96373.56;4982218;28;20085;-56
2021/09/17 08:55:14;;;;;;;14.90;12.30;;;;;;;22.03;100.00;96374.09;4981778;28;20078;-59
2021/09/17 08:57:43;;;;;;;16.95;12.52;;;;;;;21.45;100.00;96384.19;4983995;28;20077;-60
2021/09/17 09:00:37;;;;;;;16.52;12.35;;;;;;;21.73;100.00;96373.09;4985097;28;20101;-60
2021/09/17 09:03:05;;;;;;;13.15;11.57;;;;;;;22.37;100.00;96372.00;4984024;28;20062;-61
2021/09/17 09:05:36;;;;;;;14.93;11.73;;;;;;;22.46;100.00;96373.31;4981761;28;20460;-59
2021/09/17 09:08:06;;;;;;;15.38;12.63;;;;;;;21.26;100.00;96373.31;4981310;28;20062;-61
2021/09/17 09:10:35;;;;;;;14.40;12.05;;;;;;;21.42;100.00;96369.34;4982623;28;20692;-61
2021/09/17 09:13:06;;;;;;;14.63;12.88;;;;;;;22.00;100.00;96365.66;4986490;28;20075;-60
2021/09/17 09:15:36;;;;;;;15.50;11.27;;;;;;;20.90;100.00;96370.41;4985056;28;20070;-55
2021/09/17 09:18:08;;;;;;;15.48;11.95;;;;;;;21.60;100.00;96362.44;4981080;28;20067;-62
2021/09/17 09:20:40;;;;;;;14.48;12.00;;;;;;;21.50;100.00;96354.84;4982657;28;20061;-61
2021/09/17 09:23:18;;;;;;;13.55;11.65;;;;;;;21.68;100.00;96354.97;4978627;28;20089;-61
2021/09/17 09:26:05;;;;;;;16.70;13.18;;;;;;;21.32;100.00;96356.38;4985049;28;20454;-60
2021/09/17 09:28:35;;;;;;;13.75;12.25;;;;;;;22.38;100.00;96356.69;4982239;28;20112;-59
2021/09/17 09:31:05;;;;;;;14.80;12.48;;;;;;;21.80;100.00;96357.75;4985913;28;20373;-61
2021/09/17 09:33:35;;;;;;;14.45;12.90;;;;;;;21.52;100.00;96355.47;4982830;28;20073;-59
2021/09/17 09:36:10;;;;;;;15.13;12.45;;;;;;;22.71;100.00;96353.63;4986439;28;20070;-59
2021/09/17 09:38:44;;;;;;;14.35;12.32;;;;;;;22.86;96.78;96347.91;4985345;28;20081;-56
2021/09/17 09:41:15;;;;;;;15.60;13.43;;;;;;;22.09;100.00;96350.09;4975525;28;20076;-59
2021/09/17 09:43:51;;;;;;;15.18;12.00;;;;;;;23.02;95.53;96341.97;4985442;28;20472;-60
2021/09/17 09:46:28;;;;;;;14.95;12.15;;;;;;;22.08;100.00;96349.25;4984095;28;20082;-57
2021/09/17 09:49:14;;;;;;;13.50;12.00;;;;;;;23.59;94.74;96339.72;4981305;28;20301;-61
2021/09/17 09:51:53;;;;;;;14.55;12.68;;;;;;;23.77;94.80;96333.47;4978722;28;20058;-56
2021/09/17 09:54:23;;;;;;;13.48;10.75;;;;;;;23.18;94.02;96333.25;4977379;28;20066;-62
2021/09/17 09:56:52;;;;;;;15.05;12.30;;;;;;;23.35;94.90;96332.63;4982873;28;20073;-61
2021/09/17 09:59:24;;;;;;;14.40;11.73;;;;;;;24.26;84.89;96323.34;4984508;28;20066;-62
2021/09/17 10:01:58;;;;;;;13.38;11.00;;;;;;;24.38;80.70;96326.84;4983098;28;20070;-59
2021/09/17 10:04:28;;;;;;;12.27;10.98;;;;;;;24.09;82.81;96323.22;4989923;28;20086;-61
2021/09/17 10:07:04;;;;;;;11.63;10.38;;;;;;;23.76;89.83;96323.75;4989770;28;20086;-62
2021/09/17 10:09:35;;;;;;;12.32;9.75;;;;;;;23.60;90.44;96322.50;4989125;28;20070;-60
2021/09/17 10:12:04;;;;;;;15.27;11.15;;;;;;;23.84;88.67;96323.41;4989022;28;20101;-61
2021/09/17 10:14:33;;;;;;;13.23;11.52;;;;;;;24.79;75.06;96311.59;4987449;28;20078;-61
2021/09/17 10:17:06;;;;;;;11.15;9.90;;;;;;;24.12;90.78;96327.28;4985430;28;20046;-60
2021/09/17 10:19:36;;;;;;;10.77;9.23;;;;;;;25.02;72.10;96318.81;4986180;28;20081;-61
2021/09/17 10:22:06;;;;;;;12.73;9.93;;;;;;;24.75;79.09;96315.81;4990096;28;20088;-61
2021/09/17 10:24:42;;;;;;;13.23;11.48;;;;;;;25.03;72.32;96327.72;4989294;28;20081;-61
2021/09/17 10:27:21;;;;;;;12.50;11.05;;;;;;;25.24;67.88;96316.28;4981559;28;20070;-59
2021/09/17 10:29:58;;;;;;;12.48;10.30;;;;;;;25.21;71.24;96319.47;4988052;28;20066;-60
2021/09/17 10:32:38;;;;;;;9.63;7.90;;;;;;;23.56;83.31;96320.50;4981792;28;20078;-58
2021/09/17 10:35:11;;;;;;;;;;;;;;;24.49;67.87;96316.31;4989624;28;20481;-62
2021/09/17 10:38:08;;;;;;;9.15;7.90;;;;;;;24.46;68.82;96325.69;4988300;28;20371;-54
2021/09/17 10:40:50;;;;;;;7.55;6.65;;;;;;;25.09;59.91;96310.56;4984723;28;20089;-61
2021/09/17 10:43:30;;;;;;;10.40;8.88;;;;;;;24.95;61.51;96304.63;4986507;28;20100;-61
2021/09/17 10:46:07;;;;;;;8.55;7.45;;;;;;;23.97;71.05;96310.78;4982906;28;20311;-61
2021/09/17 10:49:03;;;;;;;10.15;7.20;;;;;;;24.28;60.53;96306.94;4989228;28;20073;-61
2021/09/17 10:51:34;;;;;;;9.77;7.47;;;;;;;24.35;70.43;96310.31;4959555;28;20480;-61
2021/09/17 10:54:10;;;;;;;8.50;6.35;;;;;;;23.64;65.35;96304.00;4987738;28;20058;-60
2021/09/17 10:57:08;;;;;;;10.00;7.30;;;;;;;24.93;64.11;96305.91;4986916;28;20081;-57
2021/09/17 10:59:45;;;;;;;8.55;7.30;;;;;;;25.43;56.63;96302.56;4978717;28;20069;-62
2021/09/17 11:02:14;;;;;;;8.20;7.22;;;;;;;25.30;61.83;96296.44;4986467;28;20074;-59
2021/09/17 11:04:45;;;;;;;6.20;5.00;;;;;;;24.53;59.49;96296.72;4984964;28;20078;-61
2021/09/17 11:07:36;;;;;;;6.32;4.60;;;;;;;25.24;58.83;96296.56;4990622;28;20460;-59
2021/09/17 11:10:11;;;;;;;4.32;3.47;;;;;;;24.41;53.00;96297.81;4985849;28;21362;-59
2021/09/17 11:12:40;;;;;;;4.13;3.00;;;;;;;25.22;49.31;96296.78;4979866;28;20070;-61
2021/09/17 11:15:12;;;;;;;2.30;1.98;;;;;;;24.84;48.97;96292.81;4985270;28;20070;-61
2021/09/17 11:17:44;;;;;;;2.58;2.38;;;;;;;25.86;44.87;96290.38;4983844;28;20065;-61
2021/09/17 11:20:15;;;;;;;1.70;1.60;;;;;;;24.85;41.53;96293.63;4986030;28;20117;-60
2021/09/17 11:23:00;;;;;;;1.52;1.40;;;;;;;25.21;40.03;96292.47;4985032;28;20082;-62
2021/09/17 11:25:33;;;;;;;1.40;1.30;;;;;;;25.39;41.01;96286.03;4982810;28;20117;-61